createdAt,value
2023-11-25T00:02:44.666Z,1.4
2023-11-25T00:07:51.367Z,1.4
2023-11-25T00:12:58.137Z,1.4
2023-11-25T00:18:04.886Z,1.4
2023-11-25T00:23:11.577Z,1.3
2023-11-25T00:28:18.405Z,1.3
2023-11-25T00:33:25.075Z,1.3
2023-11-25T00:38:31.835Z,1.3
2023-11-25T00:43:38.533Z,1.3
2023-11-25T00:48:45.294Z,1.2
2023-11-25T00:53:52.042Z,1.2
2023-11-25T00:58:58.809Z,1.2
2023-11-25T01:04:05.665Z,1.2
2023-11-25T01:09:12.286Z,1.1
2023-11-25T01:14:19.104Z,1.1
2023-11-25T01:19:25.814Z,1.1
2023-11-25T01:24:32.498Z,1.1
2023-11-25T01:29:39.253Z,1.1
2023-11-25T01:34:46.057Z,1.1
2023-11-25T01:39:52.674Z,1
2023-11-25T01:44:59.500Z,1
2023-11-25T01:50:06.252Z,1
2023-11-25T01:55:12.997Z,1
2023-11-25T02:00:19.724Z,1
2023-11-25T02:05:26.529Z,1
2023-11-25T02:10:33.279Z,1
2023-11-25T02:15:39.963Z,0.9
2023-11-25T02:20:46.724Z,0.9
2023-11-25T02:25:53.449Z,0.9
2023-11-25T02:31:00.181Z,0.9
2023-11-25T02:36:06.898Z,0.9
2023-11-25T02:41:13.637Z,0.9
2023-11-25T02:46:20.560Z,0.8
2023-11-25T02:51:27.197Z,0.8
2023-11-25T02:56:33.898Z,0.8
2023-11-25T03:01:40.718Z,0.8
2023-11-25T03:06:47.371Z,0.8
2023-11-25T03:11:54.140Z,0.8
2023-11-25T03:17:00.965Z,0.8
2023-11-25T03:22:07.603Z,0.7
2023-11-25T03:27:14.343Z,0.7
2023-11-25T03:32:21.057Z,0.7
2023-11-25T03:37:27.847Z,0.7
2023-11-25T03:42:34.508Z,0.7
2023-11-25T03:47:41.293Z,0.7
2023-11-25T03:52:48.154Z,0.6
2023-11-25T03:57:54.794Z,0.6
2023-11-25T04:03:01.571Z,0.6
2023-11-25T04:08:08.231Z,0.6
2023-11-25T04:13:15.055Z,0.6
2023-11-25T04:18:21.713Z,0.6
2023-11-25T04:23:28.529Z,0.4
2023-11-25T04:28:35.218Z,0.5
2023-11-25T04:33:41.994Z,0.5
2023-11-25T04:38:48.738Z,0.4
2023-11-25T04:43:55.510Z,0.4
2023-11-25T04:49:02.222Z,0.4
2023-11-25T04:54:08.986Z,0.3
2023-11-25T04:59:15.660Z,0.3
2023-11-25T05:04:22.472Z,0.3
2023-11-25T05:09:29.203Z,0.3
2023-11-25T05:14:35.993Z,0.3
2023-11-25T05:19:42.740Z,0.3
2023-11-25T05:24:49.458Z,0.3
2023-11-25T05:29:56.115Z,0.4
2023-11-25T05:35:02.852Z,0.2
2023-11-25T05:40:09.746Z,0.3
2023-11-25T05:45:16.358Z,0.3
2023-11-25T05:50:23.184Z,0.3
2023-11-25T05:55:29.953Z,0.3
2023-11-25T06:00:36.660Z,0.3
2023-11-25T06:05:43.410Z,0.3
2023-11-25T06:10:50.165Z,0.3
2023-11-25T06:21:03.636Z,0.2
2023-11-25T06:26:10.326Z,0.2
2023-11-25T06:31:17.152Z,0.2
2023-11-25T06:36:23.870Z,0.2
2023-11-25T06:41:30.636Z,0.2
2023-11-25T06:46:37.585Z,0.2
2023-11-25T06:51:44.130Z,0.2
2023-11-25T06:56:50.879Z,0.2
2023-11-25T07:01:57.687Z,0.2
2023-11-25T07:07:04.323Z,0.2
2023-11-25T07:12:11.125Z,0.2
2023-11-25T07:17:18.051Z,0.1
2023-11-25T07:22:24.629Z,0.1
2023-11-25T07:27:31.332Z,0.1
2023-11-25T07:32:38.162Z,0.1
2023-11-25T07:37:44.827Z,0.1
2023-11-25T07:42:51.605Z,0.1
2023-11-25T07:47:58.396Z,0.1
2023-11-25T07:53:05.067Z,0.1
2023-11-25T07:58:11.803Z,0.2
2023-11-25T08:03:18.635Z,0.2
2023-11-25T08:08:25.303Z,0.3
2023-11-25T08:13:32.289Z,0.5
2023-11-25T08:18:38.695Z,0.8
2023-11-25T08:23:45.522Z,0.8
2023-11-25T08:28:52.229Z,0.9
2023-11-25T08:33:59.009Z,1
2023-11-25T08:39:05.752Z,1.1
2023-11-25T08:44:12.516Z,1.3
2023-11-25T08:49:19.330Z,1.5
2023-11-25T08:54:25.904Z,1.5
2023-11-25T08:59:32.715Z,1.6
2023-11-25T09:04:39.524Z,1.7
2023-11-25T09:09:46.125Z,1.7
2023-11-25T09:14:52.962Z,1.7
2023-11-25T09:20:01.036Z,1.8
2023-11-25T09:25:08.882Z,1.8
2023-11-25T09:30:15.660Z,1.8
2023-11-25T09:35:22.301Z,1.9
2023-11-25T09:40:29.187Z,1.9
2023-11-25T09:45:35.891Z,1.9
2023-11-25T09:50:42.609Z,1.9
2023-11-25T09:55:49.384Z,2
2023-11-25T10:00:56.094Z,2
2023-11-25T10:06:02.839Z,2
2023-11-25T10:16:16.335Z,2.1
2023-11-25T10:21:23.098Z,2.1
2023-11-25T10:26:29.826Z,2
2023-11-25T10:31:36.519Z,2
2023-11-25T10:36:43.328Z,2
2023-11-25T10:52:03.565Z,2.3
2023-11-25T10:57:10.286Z,2.4
2023-11-25T11:02:17.096Z,2.5
2023-11-25T11:07:23.774Z,2.5
2023-11-25T11:12:30.527Z,2.6
2023-11-25T11:17:37.260Z,2.6
2023-11-25T11:22:44.085Z,2.6
2023-11-25T11:32:57.480Z,2.8
2023-11-25T11:38:04.288Z,2.8
2023-11-25T11:43:11.003Z,2.9
2023-11-25T11:48:17.694Z,2.9
2023-11-25T11:53:24.387Z,3
2023-11-25T11:58:31.239Z,3
2023-11-25T12:03:38.102Z,3.1
2023-11-25T12:08:44.652Z,3.1
2023-11-25T12:13:51.546Z,3.1
2023-11-25T12:18:58.165Z,3.2
2023-11-25T12:24:04.918Z,3.2
2023-11-25T12:29:11.632Z,3.3
2023-11-25T12:34:18.371Z,3.3
2023-11-25T12:39:25.144Z,3.5
2023-11-25T12:44:31.863Z,3.8
2023-11-25T12:49:38.652Z,4
2023-11-25T12:54:45.346Z,4.1
2023-11-25T12:59:52.079Z,4
2023-11-25T13:04:58.873Z,4
2023-11-25T13:10:05.743Z,4.1
2023-11-25T13:15:12.309Z,4.1
2023-11-25T13:20:19.057Z,4.3
2023-11-25T13:25:25.841Z,4.7
2023-11-25T13:30:32.558Z,4.8
2023-11-25T13:35:39.295Z,5.2
2023-11-25T13:40:46.064Z,5.3
2023-11-25T13:50:59.497Z,5.5
2023-11-25T14:01:13.080Z,5.8
2023-11-25T14:06:19.744Z,6
2023-11-25T14:11:27.715Z,6
2023-11-25T14:16:34.549Z,6
2023-11-25T14:21:41.224Z,6
2023-11-25T14:26:47.940Z,6.1
2023-11-25T14:31:54.696Z,6.3
2023-11-25T14:37:01.415Z,6.3
2023-11-25T14:42:08.159Z,6.3
2023-11-25T14:47:15.011Z,6.3
2023-11-25T14:52:21.631Z,6.4
2023-11-25T15:02:35.229Z,6.5
2023-11-25T15:07:41.881Z,6.6
2023-11-25T15:12:48.607Z,6.6
2023-11-25T15:17:55.568Z,6.7
2023-11-25T15:23:02.180Z,6.7
2023-11-25T15:28:08.926Z,6.6
2023-11-25T15:33:15.627Z,6.6
2023-11-25T15:38:22.307Z,6.7
2023-11-25T15:43:30.306Z,6.7
2023-11-25T15:48:37.011Z,6.7
2023-11-25T15:53:43.812Z,6.7
2023-11-25T15:58:50.508Z,6.7
2023-11-25T16:03:57.354Z,6.6
2023-11-25T16:09:03.989Z,6.6
2023-11-25T16:14:10.726Z,6.4
2023-11-25T16:19:17.446Z,6.4
2023-11-25T16:24:24.174Z,6.5
2023-11-25T16:29:30.922Z,6.6
2023-11-25T16:34:37.686Z,6.5
2023-11-25T16:39:44.418Z,6.3
2023-11-25T16:44:51.160Z,6.2
2023-11-25T16:49:57.955Z,6.3
2023-11-25T16:55:04.645Z,6.4
2023-11-25T17:00:11.388Z,6.2
2023-11-25T17:05:18.198Z,6.1
2023-11-25T17:10:26.191Z,6.3
2023-11-25T17:15:32.817Z,6.3
2023-11-25T17:20:39.571Z,6.4
2023-11-25T17:25:46.334Z,6.5
2023-11-25T17:30:53.063Z,6.4
2023-11-25T17:35:59.790Z,6.1
2023-11-25T17:41:06.575Z,6
2023-11-25T17:46:13.276Z,5.8
2023-11-25T17:51:20.031Z,5.7
2023-11-25T17:56:26.765Z,5.5
2023-11-25T18:01:33.778Z,5.3
2023-11-25T18:11:49.435Z,5.2
2023-11-25T18:16:56.234Z,5
2023-11-25T18:22:02.927Z,4.8
2023-11-25T18:27:09.766Z,4.8
2023-11-25T18:32:16.453Z,4.7
2023-11-25T18:37:23.176Z,4.7
2023-11-25T18:42:29.878Z,4.6
2023-11-25T18:47:36.659Z,4.6
2023-11-25T18:52:43.419Z,4.5
2023-11-25T18:57:50.134Z,4.7
2023-11-25T19:02:57.021Z,4.7
2023-11-25T19:08:03.630Z,4.7
2023-11-25T19:13:10.357Z,4.7
2023-11-25T19:18:17.122Z,4.7
2023-11-25T19:23:23.759Z,4.6
2023-11-25T19:28:30.556Z,4.6
2023-11-25T19:33:37.393Z,4.6
2023-11-25T19:38:44.053Z,4.6
2023-11-25T19:43:50.817Z,4.5
2023-11-25T19:54:05.509Z,4.4
2023-11-25T19:59:12.242Z,4.4
2023-11-25T20:04:18.978Z,4.3
2023-11-25T20:09:25.720Z,4.3
2023-11-25T20:14:32.442Z,4.3
2023-11-25T20:19:40.447Z,4.2
2023-11-25T20:24:47.176Z,4.2
2023-11-25T20:29:53.943Z,4.2
2023-11-25T20:35:00.674Z,4.2
2023-11-25T20:40:07.362Z,4.1
2023-11-25T20:45:14.141Z,4.1
2023-11-25T20:50:21.228Z,4.1
2023-11-25T20:55:27.606Z,4.1
2023-11-25T21:00:34.311Z,4.1
2023-11-25T21:10:47.843Z,4
2023-11-25T21:21:01.329Z,4
2023-11-25T21:26:08.141Z,4
2023-11-25T21:31:14.801Z,4
2023-11-25T21:36:21.559Z,4
2023-11-25T21:41:28.309Z,3.9
2023-11-25T21:46:35.036Z,3.9
2023-11-25T21:51:41.786Z,3.9
2023-11-25T21:56:48.550Z,3.9
2023-11-25T22:01:55.421Z,3.9
2023-11-25T22:07:04.185Z,3.9
2023-11-25T22:12:08.762Z,3.9
2023-11-25T22:17:15.595Z,3.9
2023-11-25T22:22:22.242Z,3.9
2023-11-25T22:27:28.988Z,3.9
2023-11-25T22:32:35.841Z,3.9
2023-11-25T22:37:42.501Z,3.8
2023-11-25T22:42:49.530Z,3.8
2023-11-25T22:47:55.982Z,3.8
2023-11-25T22:53:02.744Z,3.8
2023-11-25T22:58:09.481Z,3.8
2023-11-25T23:03:16.359Z,3.8
2023-11-25T23:08:22.983Z,3.8
2023-11-25T23:13:29.691Z,3.8
2023-11-25T23:18:36.421Z,3.7
2023-11-25T23:23:48.092Z,3.7
2023-11-25T23:28:49.941Z,3.7
2023-11-25T23:33:56.651Z,3.7
2023-11-25T23:39:04.650Z,3.7
2023-11-25T23:44:11.377Z,3.7
2023-11-25T23:49:18.091Z,3.7
2023-11-25T23:54:24.846Z,3.7
2023-11-25T23:59:31.565Z,3.7
